createdAt,value
2023-02-23T00:00:32.752Z,8.68
2023-02-23T00:03:02.082Z,10.13
2023-02-23T00:05:31.492Z,9.75
2023-02-23T00:07:59.634Z,9.25
2023-02-23T00:10:31.723Z,9.02
2023-02-23T00:13:00.247Z,8.60
2023-02-23T00:15:32.229Z,8.70
2023-02-23T00:18:04.762Z,9.85
2023-02-23T00:20:32.863Z,9.57
2023-02-23T00:23:01.615Z,10.23
2023-02-23T00:25:31.250Z,9.95
2023-02-23T00:28:03.555Z,10.35
2023-02-23T00:30:31.968Z,8.68
2023-02-23T00:33:00.137Z,9.32
2023-02-23T00:35:28.394Z,9.73
2023-02-23T00:37:59.648Z,8.85
2023-02-23T00:40:29.467Z,8.65
2023-02-23T00:43:01.884Z,8.30
2023-02-23T00:45:30.714Z,7.78
2023-02-23T00:47:59.137Z,9.43
2023-02-23T00:50:27.708Z,9.65
2023-02-23T00:52:59.785Z,11.48
2023-02-23T00:55:28.579Z,11.35
2023-02-23T00:57:58.475Z,9.30
2023-02-23T01:00:26.422Z,10.27
2023-02-23T01:02:56.001Z,9.57
2023-02-23T01:05:24.244Z,7.50
2023-02-23T01:07:54.935Z,8.38
2023-02-23T01:10:24.652Z,7.60
2023-02-23T01:12:56.322Z,8.13
2023-02-23T01:15:24.389Z,8.30
2023-02-23T01:17:52.664Z,8.70
2023-02-23T01:20:21.623Z,8.07
2023-02-23T01:22:50.449Z,7.75
2023-02-23T01:25:20.468Z,7.30
2023-02-23T01:27:48.781Z,7.05
2023-02-23T01:30:16.957Z,8.15
2023-02-23T01:32:46.310Z,6.22
2023-02-23T01:35:14.888Z,8.88
2023-02-23T01:37:44.931Z,7.68
2023-02-23T01:40:29.160Z,8.52
2023-02-23T01:42:58.605Z,8.68
2023-02-23T01:45:32.597Z,7.85
2023-02-23T01:48:15.537Z,7.75
2023-02-23T01:51:00.775Z,8.45
2023-02-23T01:53:34.904Z,7.55
2023-02-23T01:56:17.895Z,7.90
2023-02-23T01:58:52.580Z,6.97
2023-02-23T02:01:22.101Z,7.68
2023-02-23T02:04:01.599Z,7.88
2023-02-23T02:06:29.688Z,7.15
2023-02-23T02:09:08.252Z,7.47
2023-02-23T02:11:36.579Z,6.63
2023-02-23T02:14:16.244Z,7.28
2023-02-23T02:17:06.942Z,7.15
2023-02-23T02:20:01.721Z,8.10
2023-02-23T02:23:09.942Z,8.02
2023-02-23T02:26:16.233Z,7.53
2023-02-23T02:29:26.820Z,8.05
2023-02-23T02:32:11.496Z,8.45
2023-02-23T02:35:24.220Z,6.88
2023-02-23T02:38:16.699Z,8.23
2023-02-23T02:40:56.360Z,8.70
2023-02-23T02:43:52.677Z,8.10
2023-02-23T02:46:27.877Z,8.63
2023-02-23T02:49:23.334Z,7.85
2023-02-23T02:52:07.180Z,8.40
2023-02-23T02:54:41.695Z,7.70
2023-02-23T02:57:10.798Z,8.45
2023-02-23T03:00:06.411Z,8.07
2023-02-23T03:02:56.452Z,6.43
2023-02-23T03:05:46.711Z,8.57
2023-02-23T03:08:56.486Z,9.05
2023-02-23T03:11:44.420Z,8.32
2023-02-23T03:15:04.975Z,6.97
2023-02-23T03:18:07.799Z,7.15
2023-02-23T03:21:09.147Z,9.30
2023-02-23T03:24:15.122Z,8.55
2023-02-23T03:27:40.903Z,8.25
2023-02-23T03:30:52.412Z,8.82
2023-02-23T03:33:49.190Z,8.35
2023-02-23T03:36:39.957Z,9.70
2023-02-23T03:39:30.640Z,8.60
2023-02-23T03:42:18.221Z,8.43
2023-02-23T03:45:08.701Z,8.13
2023-02-23T03:48:00.769Z,9.35
2023-02-23T03:51:00.617Z,8.57
2023-02-23T03:53:54.997Z,7.78
2023-02-23T03:56:41.892Z,8.57
2023-02-23T03:59:35.530Z,10.27
2023-02-23T04:02:22.240Z,8.80
2023-02-23T04:05:11.424Z,8.90
2023-02-23T04:07:59.734Z,8.63
2023-02-23T04:10:49.880Z,9.43
2023-02-23T04:13:20.604Z,9.65
2023-02-23T04:15:53.046Z,9.10
2023-02-23T04:18:26.661Z,9.80
2023-02-23T04:20:55.551Z,10.48
2023-02-23T04:23:24.263Z,9.65
2023-02-23T04:25:52.696Z,9.90
2023-02-23T04:28:22.539Z,10.30
2023-02-23T04:30:53.036Z,10.70
2023-02-23T04:33:22.321Z,10.27
2023-02-23T04:35:50.594Z,9.27
2023-02-23T04:38:22.994Z,9.57
2023-02-23T04:40:51.917Z,10.70
2023-02-23T04:43:21.282Z,9.50
2023-02-23T04:45:49.562Z,9.90
2023-02-23T04:48:18.277Z,9.95
2023-02-23T04:50:46.169Z,10.43
2023-02-23T04:53:14.088Z,9.93
2023-02-23T04:55:44.135Z,9.68
2023-02-23T04:58:15.977Z,9.85
2023-02-23T05:00:44.139Z,11.00
2023-02-23T05:03:12.468Z,10.32
2023-02-23T05:05:40.404Z,9.82
2023-02-23T05:08:09.018Z,8.48
2023-02-23T05:10:40.457Z,8.48
2023-02-23T05:13:08.800Z,9.77
2023-02-23T05:15:38.760Z,9.32
2023-02-23T05:18:08.312Z,11.23
2023-02-23T05:20:36.797Z,9.90
2023-02-23T05:23:06.048Z,8.32
2023-02-23T05:25:34.279Z,10.07
2023-02-23T05:28:06.051Z,9.77
2023-02-23T05:30:34.824Z,9.43
2023-02-23T05:33:03.021Z,9.57
2023-02-23T05:35:31.728Z,8.07
2023-02-23T05:37:59.763Z,8.82
2023-02-23T05:40:27.757Z,9.50
2023-02-23T05:43:00.580Z,8.95
2023-02-23T05:45:28.702Z,7.55
2023-02-23T05:47:58.247Z,8.27
2023-02-23T05:50:26.313Z,9.13
2023-02-23T05:52:54.418Z,8.38
2023-02-23T05:55:22.727Z,8.63
2023-02-23T05:57:52.054Z,9.35
2023-02-23T06:00:22.396Z,8.93
2023-02-23T06:02:53.220Z,9.85
2023-02-23T06:05:25.686Z,10.05
2023-02-23T06:07:54.038Z,8.88
2023-02-23T06:10:22.362Z,8.77
2023-02-23T06:12:50.563Z,9.32
2023-02-23T06:15:20.526Z,9.40
2023-02-23T06:17:51.301Z,9.55
2023-02-23T06:20:22.955Z,10.50
2023-02-23T06:22:50.911Z,13.27
2023-02-23T06:25:20.079Z,11.50
2023-02-23T06:27:54.902Z,10.20
2023-02-23T06:30:23.837Z,10.63
2023-02-23T06:32:51.902Z,9.93
2023-02-23T06:35:22.281Z,9.75
2023-02-23T06:37:50.466Z,10.20
2023-02-23T06:40:18.777Z,8.38
2023-02-23T06:42:47.198Z,11.20
2023-02-23T06:45:16.022Z,10.02
2023-02-23T06:47:45.402Z,10.00
2023-02-23T06:50:16.564Z,9.10
2023-02-23T06:52:46.113Z,10.57
2023-02-23T06:55:17.243Z,10.30
2023-02-23T06:57:49.654Z,10.98
2023-02-23T07:00:18.060Z,9.27
2023-02-23T07:02:45.989Z,8.40
2023-02-23T07:05:13.945Z,9.20
2023-02-23T07:07:45.675Z,10.07
2023-02-23T07:10:14.094Z,9.93
2023-02-23T07:12:43.165Z,8.25
2023-02-23T07:15:11.891Z,8.40
2023-02-23T07:17:40.208Z,9.43
2023-02-23T07:20:13.299Z,9.48
2023-02-23T07:22:43.180Z,9.02
2023-02-23T07:25:11.655Z,8.30
2023-02-23T07:27:42.381Z,7.43
2023-02-23T07:30:11.177Z,8.57
2023-02-23T07:32:40.380Z,7.80
2023-02-23T07:35:08.743Z,8.80
2023-02-23T07:37:36.860Z,7.45
2023-02-23T07:40:05.812Z,8.30
2023-02-23T07:42:37.942Z,9.25
2023-02-23T07:45:07.545Z,8.07
2023-02-23T07:47:38.577Z,7.95
2023-02-23T07:50:10.628Z,6.85
2023-02-23T07:52:58.695Z,7.78
2023-02-23T07:55:26.909Z,7.05
2023-02-23T07:57:57.242Z,8.20
2023-02-23T08:00:29.202Z,8.55
2023-02-23T08:02:57.255Z,6.15
2023-02-23T08:05:26.744Z,6.60
2023-02-23T08:07:56.745Z,8.43
2023-02-23T08:10:24.930Z,8.13
2023-02-23T08:12:53.314Z,8.32
2023-02-23T08:15:21.953Z,7.25
2023-02-23T08:17:49.898Z,6.95
2023-02-23T08:20:18.028Z,7.00
2023-02-23T08:22:49.753Z,7.63
2023-02-23T08:25:18.496Z,5.95
2023-02-23T08:27:52.059Z,6.70
2023-02-23T08:30:21.511Z,7.15
2023-02-23T08:32:51.175Z,6.82
2023-02-23T08:35:20.388Z,7.43
2023-02-23T08:37:48.509Z,7.93
2023-02-23T08:40:20.977Z,6.50
2023-02-23T08:42:53.164Z,7.95
2023-02-23T08:45:23.898Z,8.40
2023-02-23T08:47:52.192Z,7.57
2023-02-23T08:50:21.076Z,7.20
2023-02-23T08:53:13.402Z,3.10
2023-02-23T08:55:45.061Z,7.45
2023-02-23T08:58:13.810Z,6.20
2023-02-23T09:00:41.996Z,8.10
2023-02-23T09:03:10.284Z,7.30
2023-02-23T09:05:38.946Z,6.90
2023-02-23T09:08:07.297Z,6.72
2023-02-23T09:10:36.153Z,7.60
2023-02-23T09:13:08.172Z,7.18
2023-02-23T09:15:39.715Z,6.47
2023-02-23T09:18:10.043Z,6.65
2023-02-23T09:20:38.757Z,7.15
2023-02-23T09:23:08.250Z,8.07
2023-02-23T09:25:43.307Z,6.63
2023-02-23T09:28:17.417Z,11.18
2023-02-23T09:30:46.034Z,6.70
2023-02-23T09:33:14.440Z,6.60
2023-02-23T09:35:45.221Z,6.00
2023-02-23T09:38:16.106Z,7.18
2023-02-23T09:40:50.001Z,7.47
2023-02-23T09:43:40.920Z,6.80
2023-02-23T09:46:33.690Z,6.05
2023-02-23T09:49:03.297Z,6.68
2023-02-23T09:51:33.521Z,5.55
2023-02-23T09:54:03.165Z,6.43
2023-02-23T09:56:39.855Z,6.20
2023-02-23T09:59:11.819Z,6.80
2023-02-23T10:01:47.294Z,6.38
2023-02-23T10:04:16.661Z,6.60
2023-02-23T10:06:53.493Z,6.63
2023-02-23T10:09:53.411Z,6.30
2023-02-23T10:15:45.796Z,6.38
2023-02-23T10:18:20.238Z,6.47
2023-02-23T10:21:13.792Z,6.05
2023-02-23T10:24:04.298Z,6.50
2023-02-23T10:26:54.382Z,5.00
2023-02-23T10:29:34.741Z,6.28
2023-02-23T10:32:42.205Z,6.45
2023-02-23T10:35:15.266Z,6.45
2023-02-23T10:37:46.806Z,3.88
2023-02-23T10:40:33.189Z,6.07
2023-02-23T10:43:03.020Z,5.82
2023-02-23T10:45:35.070Z,5.78
2023-02-23T10:48:05.438Z,6.70
2023-02-23T10:50:37.899Z,5.80
2023-02-23T10:53:19.149Z,5.80
2023-02-23T10:55:47.729Z,7.32
2023-02-23T10:58:23.215Z,6.30
2023-02-23T11:00:53.299Z,6.47
2023-02-23T11:03:33.904Z,6.70
2023-02-23T11:06:05.306Z,6.85
2023-02-23T11:08:34.952Z,6.20
2023-02-23T11:11:06.802Z,6.88
2023-02-23T11:13:45.231Z,7.22
2023-02-23T11:16:14.673Z,6.53
2023-02-23T11:19:02.268Z,6.78
2023-02-23T11:21:38.687Z,6.80
2023-02-23T11:24:26.819Z,5.75
2023-02-23T11:27:00.827Z,5.93
2023-02-23T11:29:44.774Z,5.15
2023-02-23T11:32:24.690Z,5.57
2023-02-23T11:35:12.223Z,5.57
2023-02-23T11:37:41.835Z,5.53
2023-02-23T11:40:29.690Z,6.55
2023-02-23T11:43:14.905Z,7.43
2023-02-23T11:45:56.668Z,6.20
2023-02-23T11:48:35.158Z,6.10
2023-02-23T11:51:03.253Z,5.40
2023-02-23T11:53:40.566Z,6.13
2023-02-23T11:56:11.298Z,6.75
2023-02-23T11:58:40.896Z,6.18
2023-02-23T12:01:13.876Z,6.32
2023-02-23T12:03:55.194Z,7.07
2023-02-23T12:06:34.424Z,6.22
2023-02-23T12:09:05.257Z,6.60
2023-02-23T12:11:39.331Z,6.60
2023-02-23T12:14:52.484Z,5.50
2023-02-23T12:17:28.274Z,6.60
2023-02-23T12:20:06.011Z,6.20
2023-02-23T12:22:37.294Z,4.78
2023-02-23T12:25:14.295Z,5.93
2023-02-23T12:28:18.308Z,5.03
2023-02-23T12:30:57.015Z,4.55
2023-02-23T12:33:42.782Z,6.30
2023-02-23T12:36:19.944Z,5.88
2023-02-23T12:38:50.290Z,5.60
2023-02-23T12:41:35.884Z,5.20
2023-02-23T12:44:18.562Z,5.18
2023-02-23T12:46:49.140Z,6.10
2023-02-23T12:49:28.641Z,6.43
2023-02-23T12:52:02.321Z,6.25
2023-02-23T12:54:31.800Z,5.30
2023-02-23T12:57:19.802Z,4.93
2023-02-23T13:00:24.938Z,6.00
2023-02-23T13:03:36.755Z,5.13
2023-02-23T13:06:48.878Z,5.07
2023-02-23T13:09:22.910Z,5.53
2023-02-23T13:12:31.879Z,6.15
2023-02-23T13:15:40.871Z,5.20
2023-02-23T13:18:24.691Z,5.40
2023-02-23T13:21:01.889Z,5.40
2023-02-23T13:23:52.949Z,6.78
2023-02-23T13:26:51.591Z,5.72
2023-02-23T13:29:35.030Z,5.20
2023-02-23T13:32:05.914Z,5.70
2023-02-23T13:34:37.169Z,5.15
2023-02-23T13:37:07.530Z,5.82
2023-02-23T13:39:39.016Z,6.05
2023-02-23T13:42:31.859Z,5.13
2023-02-23T13:45:01.702Z,5.97
2023-02-23T13:47:47.268Z,7.68
2023-02-23T13:50:37.897Z,5.70
2023-02-23T13:53:07.249Z,5.80
2023-02-23T13:55:50.182Z,5.18
2023-02-23T13:58:25.205Z,5.57
2023-02-23T14:01:21.445Z,5.63
2023-02-23T14:04:00.533Z,5.40
2023-02-23T14:06:33.112Z,5.30
2023-02-23T14:09:17.533Z,5.10
2023-02-23T14:11:51.622Z,6.15
2023-02-23T14:14:31.995Z,5.30
2023-02-23T14:17:35.716Z,5.80
2023-02-23T14:20:27.858Z,5.60
2023-02-23T14:23:17.720Z,5.82
2023-02-23T14:25:51.111Z,6.13
2023-02-23T14:28:30.869Z,6.85
2023-02-23T14:31:11.649Z,5.97
2023-02-23T14:33:43.180Z,5.88
2023-02-23T14:36:29.176Z,5.97
2023-02-23T14:41:55.103Z,6.22
2023-02-23T14:44:42.540Z,6.35
2023-02-23T14:47:15.358Z,6.07
2023-02-23T14:49:57.346Z,6.07
2023-02-23T14:52:36.547Z,7.00
2023-02-23T14:55:13.441Z,9.00
2023-02-23T14:57:44.133Z,6.38
2023-02-23T15:00:15.978Z,6.68
2023-02-23T15:03:05.109Z,6.57
2023-02-23T15:05:52.884Z,6.82
2023-02-23T15:08:25.097Z,5.97
2023-02-23T15:11:05.030Z,5.45
2023-02-23T15:14:02.307Z,6.15
2023-02-23T15:16:35.528Z,6.93
2023-02-23T15:19:08.732Z,5.78
2023-02-23T15:21:39.758Z,5.85
2023-02-23T15:24:49.000Z,5.93
2023-02-23T15:27:20.526Z,6.88
2023-02-23T15:29:48.721Z,6.50
2023-02-23T15:32:27.828Z,5.95
2023-02-23T15:35:03.682Z,6.28
2023-02-23T15:37:37.219Z,6.97
2023-02-23T15:40:15.668Z,7.03
2023-02-23T15:42:50.609Z,6.93
2023-02-23T15:45:32.449Z,6.70
2023-02-23T15:48:03.455Z,7.70
2023-02-23T15:50:37.246Z,8.27
2023-02-23T15:55:45.584Z,7.70
2023-02-23T15:58:21.991Z,7.22
2023-02-23T16:01:00.331Z,7.35
2023-02-23T16:03:35.066Z,9.25
2023-02-23T16:06:24.384Z,7.28
2023-02-23T16:09:20.078Z,8.65
2023-02-23T16:11:52.985Z,7.25
2023-02-23T16:14:32.573Z,7.57
2023-02-23T16:17:10.959Z,7.45
2023-02-23T16:19:41.753Z,7.93
2023-02-23T16:22:18.436Z,7.40
2023-02-23T16:24:51.047Z,8.25
2023-02-23T16:27:22.704Z,8.27
2023-02-23T16:29:56.800Z,8.20
2023-02-23T16:32:25.928Z,7.95
2023-02-23T16:35:00.511Z,7.78
2023-02-23T16:37:28.807Z,8.07
2023-02-23T16:40:00.297Z,8.25
2023-02-23T16:42:34.714Z,9.35
2023-02-23T16:45:03.077Z,7.57
2023-02-23T16:47:38.240Z,8.93
2023-02-23T16:50:20.320Z,9.30
2023-02-23T16:52:53.132Z,11.18
2023-02-23T16:55:26.360Z,10.02
2023-02-23T16:58:00.191Z,9.85
2023-02-23T17:00:30.306Z,11.02
2023-02-23T17:03:00.779Z,10.45
2023-02-23T17:05:29.583Z,10.63
2023-02-23T17:07:59.303Z,10.90
2023-02-23T17:10:31.939Z,10.35
2023-02-23T17:13:06.462Z,10.77
2023-02-23T17:15:36.442Z,11.18
2023-02-23T17:18:04.795Z,11.70
2023-02-23T17:20:38.752Z,12.73
2023-02-23T17:23:08.868Z,18.95
2023-02-23T17:25:37.885Z,46.90
2023-02-23T17:28:06.769Z,57.92
2023-02-23T17:30:36.606Z,65.43
2023-02-23T17:33:06.338Z,68.57
2023-02-23T17:35:37.717Z,62.67
2023-02-23T17:38:27.838Z,62.60
2023-02-23T17:40:58.193Z,58.65
2023-02-23T17:43:26.907Z,58.33
2023-02-23T17:45:56.858Z,49.63
2023-02-23T17:48:27.102Z,50.75
2023-02-23T17:50:59.398Z,57.45
2023-02-23T17:53:32.629Z,69.43
2023-02-23T17:56:01.901Z,62.83
2023-02-23T17:58:30.721Z,50.35
2023-02-23T18:01:02.097Z,56.05
2023-02-23T18:03:32.269Z,52.90
2023-02-23T18:06:11.698Z,50.60
2023-02-23T18:08:42.731Z,52.42
2023-02-23T18:11:10.986Z,55.00
2023-02-23T18:13:39.405Z,50.80
2023-02-23T18:16:11.644Z,48.78
2023-02-23T18:18:41.641Z,47.10
2023-02-23T18:21:12.696Z,48.10
2023-02-23T18:23:41.943Z,45.35
2023-02-23T18:26:14.643Z,48.70
2023-02-23T18:28:46.923Z,50.75
2023-02-23T18:31:28.163Z,51.13
2023-02-23T18:34:00.466Z,55.30
2023-02-23T18:36:35.496Z,56.15
2023-02-23T18:39:06.630Z,67.65
2023-02-23T18:41:39.168Z,72.93
2023-02-23T18:44:17.176Z,62.70
2023-02-23T18:46:46.658Z,60.33
2023-02-23T18:49:17.927Z,57.90
2023-02-23T18:51:49.599Z,60.72
2023-02-23T18:54:18.947Z,66.38
2023-02-23T18:56:47.743Z,66.18
2023-02-23T18:59:16.149Z,69.15
2023-02-23T19:01:46.673Z,77.63
2023-02-23T19:04:15.349Z,77.57
2023-02-23T19:06:45.536Z,76.07
2023-02-23T19:09:14.727Z,73.28
2023-02-23T19:11:45.261Z,64.00
2023-02-23T19:14:16.236Z,69.10
2023-02-23T19:16:45.540Z,70.47
2023-02-23T19:19:16.358Z,61.85
2023-02-23T19:21:47.004Z,56.38
2023-02-23T19:24:16.264Z,49.00
2023-02-23T19:26:44.593Z,52.47
2023-02-23T19:29:16.984Z,50.53
2023-02-23T19:31:49.287Z,48.35
2023-02-23T19:34:21.619Z,53.38
2023-02-23T19:36:50.574Z,49.53
2023-02-23T19:39:21.447Z,48.95
2023-02-23T19:41:51.716Z,51.60
2023-02-23T19:44:25.132Z,50.17
2023-02-23T19:46:53.576Z,48.17
2023-02-23T19:49:26.094Z,45.70
2023-02-23T19:51:57.927Z,44.75
2023-02-23T19:54:29.056Z,42.72
2023-02-23T19:56:58.003Z,41.50
2023-02-23T19:59:28.697Z,43.72
2023-02-23T20:02:04.614Z,45.30
2023-02-23T20:04:32.813Z,50.92
2023-02-23T20:07:03.001Z,51.53
2023-02-23T20:09:34.598Z,46.33
2023-02-23T20:12:09.361Z,51.67
2023-02-23T20:14:39.711Z,53.38
2023-02-23T20:17:09.512Z,51.70
2023-02-23T20:19:42.290Z,47.17
2023-02-23T20:22:18.436Z,50.55
2023-02-23T20:24:50.681Z,40.17
2023-02-23T20:27:22.965Z,43.13
2023-02-23T20:29:53.561Z,45.55
2023-02-23T20:32:21.752Z,44.42
2023-02-23T20:34:52.617Z,38.40
2023-02-23T20:37:20.640Z,41.25
2023-02-23T20:39:50.252Z,47.42
2023-02-23T20:42:20.109Z,49.25
2023-02-23T20:44:48.341Z,44.38
2023-02-23T20:47:21.096Z,42.95
2023-02-23T20:49:49.722Z,38.40
2023-02-23T20:52:20.965Z,35.60
2023-02-23T20:54:50.012Z,33.53
2023-02-23T20:57:18.906Z,35.55
2023-02-23T20:59:48.226Z,31.98
2023-02-23T21:02:17.178Z,36.10
2023-02-23T21:04:46.042Z,37.33
2023-02-23T21:07:13.984Z,39.92
2023-02-23T21:09:44.417Z,37.30
2023-02-23T21:12:15.101Z,38.80
2023-02-23T21:14:43.090Z,35.00
2023-02-23T21:17:11.105Z,37.05
2023-02-23T21:19:39.119Z,38.33
2023-02-23T21:22:09.565Z,36.80
2023-02-23T21:24:41.250Z,37.28
2023-02-23T21:27:15.557Z,33.85
2023-02-23T21:29:44.304Z,30.90
2023-02-23T21:32:14.295Z,32.50
2023-02-23T21:34:42.903Z,33.42
2023-02-23T21:37:14.874Z,37.70
2023-02-23T21:39:46.783Z,38.15
2023-02-23T21:42:16.017Z,36.38
2023-02-23T21:44:48.438Z,35.28
2023-02-23T21:47:16.770Z,34.03
2023-02-23T21:49:49.323Z,30.83
2023-02-23T21:52:18.810Z,28.25
2023-02-23T21:54:51.496Z,28.23
2023-02-23T21:57:23.248Z,25.88
2023-02-23T21:59:58.082Z,25.40
2023-02-23T22:02:30.733Z,25.45
2023-02-23T22:05:01.978Z,26.50
2023-02-23T22:07:32.580Z,25.45
2023-02-23T22:10:03.691Z,25.17
2023-02-23T22:12:33.285Z,24.42
2023-02-23T22:15:07.457Z,25.58
2023-02-23T22:17:44.464Z,22.38
2023-02-23T22:20:23.208Z,21.88
2023-02-23T22:22:52.295Z,21.33
2023-02-23T22:25:20.708Z,20.65
2023-02-23T22:27:49.952Z,20.05
2023-02-23T22:30:23.068Z,21.30
2023-02-23T22:32:52.909Z,19.67
2023-02-23T22:35:22.145Z,19.92
2023-02-23T22:37:51.303Z,21.95
2023-02-23T22:40:19.231Z,20.17
2023-02-23T22:42:48.730Z,20.70
2023-02-23T22:45:18.804Z,22.77
2023-02-23T22:47:47.399Z,21.45
2023-02-23T22:50:22.121Z,22.90
2023-02-23T22:52:54.213Z,23.35
2023-02-23T22:55:24.087Z,24.48
2023-02-23T22:57:53.129Z,24.83
2023-02-23T23:00:22.247Z,24.52
2023-02-23T23:02:55.576Z,23.33
2023-02-23T23:05:24.472Z,24.55
2023-02-23T23:07:52.430Z,24.52
2023-02-23T23:10:22.429Z,23.77
2023-02-23T23:12:51.008Z,24.83
2023-02-23T23:15:23.017Z,24.58
2023-02-23T23:18:24.690Z,25.02
2023-02-23T23:20:55.513Z,23.70
2023-02-23T23:23:26.494Z,23.98
2023-02-23T23:26:00.489Z,23.15
2023-02-23T23:28:40.193Z,22.65
2023-02-23T23:31:11.092Z,21.17
2023-02-23T23:33:47.826Z,21.38
2023-02-23T23:36:19.990Z,21.30
2023-02-23T23:38:49.587Z,23.30
2023-02-23T23:41:19.269Z,20.65
2023-02-23T23:43:49.558Z,21.30
2023-02-23T23:46:23.570Z,20.50
2023-02-23T23:49:06.190Z,20.02
2023-02-23T23:52:18.407Z,19.33
2023-02-23T23:54:48.156Z,16.38
2023-02-23T23:57:18.176Z,16.38
2023-02-23T23:59:48.836Z,16.55
